sensor_id;sensor_type;location;lat;lon;timestamp;P1;durP1;ratioP1;P2;durP2;ratioP2
15573;SDS011;7888;46.748;8.102;2023-12-20T10:29:32;2.73;;;2.53;;
15573;SDS011;7888;46.748;8.102;2023-12-20T10:32:00;2.80;;;2.60;;
15573;SDS011;7888;46.748;8.102;2023-12-20T10:34:49;3.60;;;3.03;;
15573;SDS011;7888;46.748;8.102;2023-12-20T10:37:16;3.33;;;3.03;;
15573;SDS011;7888;46.748;8.102;2023-12-20T10:39:47;3.17;;;2.83;;
15573;SDS011;7888;46.748;8.102;2023-12-20T10:42:17;3.40;;;3.10;;
15573;SDS011;7888;46.748;8.102;2023-12-20T10:44:47;4.07;;;3.67;;
15573;SDS011;7888;46.748;8.102;2023-12-20T10:47:14;4.50;;;4.10;;
15573;SDS011;7888;46.748;8.102;2023-12-20T10:49:40;5.50;;;5.00;;
15573;SDS011;7888;46.748;8.102;2023-12-20T10:52:07;4.63;;;4.23;;
15573;SDS011;7888;46.748;8.102;2023-12-20T10:54:34;4.97;;;3.53;;
15573;SDS011;7888;46.748;8.102;2023-12-20T10:57:00;3.97;;;3.33;;
15573;SDS011;7888;46.748;8.102;2023-12-20T10:59:32;4.87;;;3.80;;
15573;SDS011;7888;46.748;8.102;2023-12-20T11:02:02;5.57;;;3.90;;
15573;SDS011;7888;46.748;8.102;2023-12-20T11:04:55;3.97;;;3.60;;
15573;SDS011;7888;46.748;8.102;2023-12-20T11:07:38;3.63;;;3.33;;
15573;SDS011;7888;46.748;8.102;2023-12-20T11:10:31;5.43;;;4.70;;
15573;SDS011;7888;46.748;8.102;2023-12-20T11:13:22;7.03;;;4.87;;
15573;SDS011;7888;46.748;8.102;2023-12-20T11:15:55;4.63;;;3.63;;
15573;SDS011;7888;46.748;8.102;2023-12-20T11:18:25;4.43;;;3.50;;
15573;SDS011;7888;46.748;8.102;2023-12-20T11:21:06;3.47;;;3.00;;
15573;SDS011;7888;46.748;8.102;2023-12-20T11:23:32;3.17;;;2.87;;
15573;SDS011;7888;46.748;8.102;2023-12-20T11:25:59;3.73;;;2.80;;
15573;SDS011;7888;46.748;8.102;2023-12-20T11:28:26;2.77;;;2.57;;
15573;SDS011;7888;46.748;8.102;2023-12-20T11:30:53;4.97;;;3.30;;
15573;SDS011;7888;46.748;8.102;2023-12-20T11:33:24;3.37;;;3.07;;
15573;SDS011;7888;46.748;8.102;2023-12-20T11:35:56;3.23;;;2.93;;
15573;SDS011;7888;46.748;8.102;2023-12-20T11:38:25;4.47;;;3.13;;
15573;SDS011;7888;46.748;8.102;2023-12-20T11:40:53;4.20;;;2.90;;
15573;SDS011;7888;46.748;8.102;2023-12-20T11:43:36;3.30;;;2.90;;
15573;SDS011;7888;46.748;8.102;2023-12-20T11:46:07;4.50;;;2.97;;
15573;SDS011;7888;46.748;8.102;2023-12-20T11:48:35;3.60;;;3.17;;
15573;SDS011;7888;46.748;8.102;2023-12-20T11:51:08;5.50;;;3.53;;
15573;SDS011;7888;46.748;8.102;2023-12-20T11:53:38;5.80;;;4.33;;
15573;SDS011;7888;46.748;8.102;2023-12-20T11:56:06;5.10;;;4.60;;
15573;SDS011;7888;46.748;8.102;2023-12-20T11:58:32;5.27;;;3.97;;
15573;SDS011;7888;46.748;8.102;2023-12-20T12:00:59;5.27;;;4.27;;
15573;SDS011;7888;46.748;8.102;2023-12-20T12:03:25;4.33;;;3.93;;
15573;SDS011;7888;46.748;8.102;2023-12-20T12:05:51;5.20;;;4.23;;
15573;SDS011;7888;46.748;8.102;2023-12-20T12:08:17;3.97;;;3.57;;
15573;SDS011;7888;46.748;8.102;2023-12-20T12:10:44;5.50;;;5.00;;
15573;SDS011;7888;46.748;8.102;2023-12-20T12:13:10;4.33;;;3.93;;
15573;SDS011;7888;46.748;8.102;2023-12-20T12:15:37;4.73;;;4.20;;
15573;SDS011;7888;46.748;8.102;2023-12-20T12:18:03;4.00;;;3.60;;
15573;SDS011;7888;46.748;8.102;2023-12-20T12:20:30;4.93;;;3.60;;
15573;SDS011;7888;46.748;8.102;2023-12-20T12:23:03;5.07;;;3.83;;
15573;SDS011;7888;46.748;8.102;2023-12-20T12:25:31;4.23;;;3.83;;
15573;SDS011;7888;46.748;8.102;2023-12-20T12:28:00;3.97;;;3.63;;
15573;SDS011;7888;46.748;8.102;2023-12-20T12:30:26;3.97;;;3.27;;
15573;SDS011;7888;46.748;8.102;2023-12-20T12:32:52;3.97;;;3.57;;
15573;SDS011;7888;46.748;8.102;2023-12-20T12:35:19;3.77;;;3.23;;
15573;SDS011;7888;46.748;8.102;2023-12-20T12:37:45;3.20;;;2.90;;
15573;SDS011;7888;46.748;8.102;2023-12-20T12:40:12;3.53;;;2.97;;
15573;SDS011;7888;46.748;8.102;2023-12-20T12:42:40;3.20;;;2.90;;
15573;SDS011;7888;46.748;8.102;2023-12-20T12:45:08;2.83;;;2.63;;
15573;SDS011;7888;46.748;8.102;2023-12-20T12:47:36;3.20;;;2.90;;
15573;SDS011;7888;46.748;8.102;2023-12-20T12:50:04;3.33;;;3.03;;
15573;SDS011;7888;46.748;8.102;2023-12-20T12:52:30;3.50;;;3.20;;
15573;SDS011;7888;46.748;8.102;2023-12-20T12:54:56;3.73;;;3.07;;
15573;SDS011;7888;46.748;8.102;2023-12-20T12:57:22;3.60;;;2.70;;
15573;SDS011;7888;46.748;8.102;2023-12-20T12:59:49;3.10;;;2.80;;
15573;SDS011;7888;46.748;8.102;2023-12-20T13:02:15;3.33;;;2.80;;
15573;SDS011;7888;46.748;8.102;2023-12-20T13:04:41;2.80;;;2.60;;
15573;SDS011;7888;46.748;8.102;2023-12-20T13:07:08;3.17;;;2.87;;
15573;SDS011;7888;46.748;8.102;2023-12-20T13:09:38;3.70;;;2.87;;
15573;SDS011;7888;46.748;8.102;2023-12-20T13:12:05;2.77;;;2.57;;
15573;SDS011;7888;46.748;8.102;2023-12-20T13:14:33;3.10;;;2.80;;
15573;SDS011;7888;46.748;8.102;2023-12-20T13:17:01;4.40;;;3.10;;
15573;SDS011;7888;46.748;8.102;2023-12-20T13:19:28;3.57;;;3.27;;
15573;SDS011;7888;46.748;8.102;2023-12-20T13:21:55;4.67;;;4.07;;
15573;SDS011;7888;46.748;8.102;2023-12-20T13:24:21;4.97;;;4.37;;
15573;SDS011;7888;46.748;8.102;2023-12-20T13:26:47;5.00;;;4.40;;
15573;SDS011;7888;46.748;8.102;2023-12-20T13:29:12;6.13;;;4.63;;
15573;SDS011;7888;46.748;8.102;2023-12-20T13:31:38;4.40;;;4.00;;
15573;SDS011;7888;46.748;8.102;2023-12-20T13:34:05;4.17;;;2.90;;
15573;SDS011;7888;46.748;8.102;2023-12-20T13:36:31;2.97;;;2.67;;
15573;SDS011;7888;46.748;8.102;2023-12-20T13:38:57;7.23;;;3.03;;
15573;SDS011;7888;46.748;8.102;2023-12-20T13:41:23;3.13;;;2.67;;
15573;SDS011;7888;46.748;8.102;2023-12-20T13:43:48;3.47;;;2.93;;
15573;SDS011;7888;46.748;8.102;2023-12-20T13:46:14;3.33;;;3.03;;
15573;SDS011;7888;46.748;8.102;2023-12-20T13:48:40;2.57;;;2.37;;
15573;SDS011;7888;46.748;8.102;2023-12-20T13:51:06;3.40;;;3.10;;
15573;SDS011;7888;46.748;8.102;2023-12-20T13:53:32;3.67;;;3.30;;
15573;SDS011;7888;46.748;8.102;2023-12-20T13:55:58;2.97;;;2.67;;
15573;SDS011;7888;46.748;8.102;2023-12-20T13:58:25;3.43;;;3.13;;
15573;SDS011;7888;46.748;8.102;2023-12-20T14:00:51;3.53;;;2.97;;
15573;SDS011;7888;46.748;8.102;2023-12-20T14:03:17;3.13;;;2.83;;
15573;SDS011;7888;46.748;8.102;2023-12-20T14:05:44;3.60;;;2.57;;
15573;SDS011;7888;46.748;8.102;2023-12-20T14:08:10;3.50;;;3.07;;
15573;SDS011;7888;46.748;8.102;2023-12-20T14:10:36;3.00;;;2.77;;
15573;SDS011;7888;46.748;8.102;2023-12-20T14:13:03;3.43;;;3.13;;
15573;SDS011;7888;46.748;8.102;2023-12-20T14:15:30;2.50;;;2.30;;
15573;SDS011;7888;46.748;8.102;2023-12-20T14:18:02;3.03;;;2.83;;
15573;SDS011;7888;46.748;8.102;2023-12-20T14:20:31;3.30;;;3.00;;
15573;SDS011;7888;46.748;8.102;2023-12-20T14:22:59;3.20;;;2.90;;
15573;SDS011;7888;46.748;8.102;2023-12-20T14:25:28;3.30;;;3.00;;
15573;SDS011;7888;46.748;8.102;2023-12-20T14:27:55;2.83;;;2.63;;
15573;SDS011;7888;46.748;8.102;2023-12-20T14:30:21;3.33;;;3.03;;
15573;SDS011;7888;46.748;8.102;2023-12-20T14:32:47;3.30;;;3.00;;
15573;SDS011;7888;46.748;8.102;2023-12-20T14:35:13;3.00;;;2.70;;
15573;SDS011;7888;46.748;8.102;2023-12-20T14:37:40;3.00;;;2.80;;
15573;SDS011;7888;46.748;8.102;2023-12-20T14:40:06;3.30;;;3.00;;
15573;SDS011;7888;46.748;8.102;2023-12-20T14:42:40;3.17;;;2.87;;
15573;SDS011;7888;46.748;8.102;2023-12-20T14:45:07;2.83;;;2.63;;
15573;SDS011;7888;46.748;8.102;2023-12-20T14:47:33;3.13;;;2.67;;
15573;SDS011;7888;46.748;8.102;2023-12-20T14:50:00;2.80;;;2.60;;
15573;SDS011;7888;46.748;8.102;2023-12-20T14:52:29;2.93;;;2.23;;
15573;SDS011;7888;46.748;8.102;2023-12-20T14:54:55;2.63;;;2.43;;
15573;SDS011;7888;46.748;8.102;2023-12-20T14:57:21;2.97;;;2.13;;
15573;SDS011;7888;46.748;8.102;2023-12-20T14:59:47;2.70;;;2.50;;
15573;SDS011;7888;46.748;8.102;2023-12-20T15:02:12;2.40;;;2.20;;
15573;SDS011;7888;46.748;8.102;2023-12-20T15:04:38;2.63;;;2.43;;
15573;SDS011;7888;46.748;8.102;2023-12-20T15:07:04;2.00;;;1.87;;
15573;SDS011;7888;46.748;8.102;2023-12-20T15:09:31;2.70;;;2.50;;
15573;SDS011;7888;46.748;8.102;2023-12-20T15:11:57;2.13;;;1.93;;
15573;SDS011;7888;46.748;8.102;2023-12-20T15:14:23;1.87;;;1.73;;
15573;SDS011;7888;46.748;8.102;2023-12-20T15:16:49;2.60;;;2.30;;
15573;SDS011;7888;46.748;8.102;2023-12-20T15:19:14;2.53;;;2.30;;
15573;SDS011;7888;46.748;8.102;2023-12-20T15:21:41;2.30;;;2.10;;
15573;SDS011;7888;46.748;8.102;2023-12-20T15:24:09;1.60;;;1.50;;
15573;SDS011;7888;46.748;8.102;2023-12-20T15:26:40;0.90;;;0.80;;
15573;SDS011;7888;46.748;8.102;2023-12-20T15:29:07;0.80;;;0.80;;
15573;SDS011;7888;46.748;8.102;2023-12-20T15:31:41;0.77;;;0.57;;
15573;SDS011;7888;46.748;8.102;2023-12-20T15:34:12;0.70;;;0.70;;
15573;SDS011;7888;46.748;8.102;2023-12-20T15:36:38;0.70;;;0.70;;
15573;SDS011;7888;46.748;8.102;2023-12-20T15:39:05;0.60;;;0.60;;
15573;SDS011;7888;46.748;8.102;2023-12-20T15:41:33;0.70;;;0.70;;
15573;SDS011;7888;46.748;8.102;2023-12-20T15:43:59;0.70;;;0.70;;
15573;SDS011;7888;46.748;8.102;2023-12-20T15:46:25;0.77;;;0.77;;
15573;SDS011;7888;46.748;8.102;2023-12-20T15:48:51;1.50;;;0.90;;
15573;SDS011;7888;46.748;8.102;2023-12-20T15:51:19;1.03;;;0.83;;
15573;SDS011;7888;46.748;8.102;2023-12-20T15:53:46;1.13;;;0.97;;
15573;SDS011;7888;46.748;8.102;2023-12-20T15:56:13;1.10;;;0.97;;
15573;SDS011;7888;46.748;8.102;2023-12-20T15:58:39;1.17;;;0.97;;
15573;SDS011;7888;46.748;8.102;2023-12-20T16:01:04;0.70;;;0.70;;
15573;SDS011;7888;46.748;8.102;2023-12-20T16:03:30;1.23;;;0.90;;
15573;SDS011;7888;46.748;8.102;2023-12-20T16:05:56;1.20;;;1.10;;
15573;SDS011;7888;46.748;8.102;2023-12-20T16:08:23;1.10;;;1.00;;
15573;SDS011;7888;46.748;8.102;2023-12-20T16:10:49;1.13;;;1.00;;
15573;SDS011;7888;46.748;8.102;2023-12-20T16:13:15;1.30;;;1.20;;
15573;SDS011;7888;46.748;8.102;2023-12-20T16:15:41;1.10;;;1.00;;
15573;SDS011;7888;46.748;8.102;2023-12-20T16:18:07;1.07;;;0.90;;
15573;SDS011;7888;46.748;8.102;2023-12-20T16:20:36;2.57;;;2.37;;
15573;SDS011;7888;46.748;8.102;2023-12-20T16:23:03;2.63;;;2.27;;
15573;SDS011;7888;46.748;8.102;2023-12-20T16:25:29;2.80;;;2.60;;
15573;SDS011;7888;46.748;8.102;2023-12-20T16:27:55;2.33;;;2.13;;
15573;SDS011;7888;46.748;8.102;2023-12-20T16:30:21;5.30;;;4.10;;
15573;SDS011;7888;46.748;8.102;2023-12-20T16:32:47;5.67;;;5.13;;
15573;SDS011;7888;46.748;8.102;2023-12-20T16:35:13;6.57;;;5.73;;
15573;SDS011;7888;46.748;8.102;2023-12-20T16:37:39;5.93;;;5.10;;
15573;SDS011;7888;46.748;8.102;2023-12-20T16:40:05;5.27;;;4.83;;
15573;SDS011;7888;46.748;8.102;2023-12-20T16:42:32;4.43;;;4.03;;
15573;SDS011;7888;46.748;8.102;2023-12-20T16:44:58;4.20;;;3.80;;
15573;SDS011;7888;46.748;8.102;2023-12-20T16:47:24;3.90;;;3.17;;
15573;SDS011;7888;46.748;8.102;2023-12-20T16:49:50;1.67;;;1.57;;
15573;SDS011;7888;46.748;8.102;2023-12-20T16:52:16;1.60;;;1.40;;
15573;SDS011;7888;46.748;8.102;2023-12-20T16:54:41;1.50;;;1.40;;
15573;SDS011;7888;46.748;8.102;2023-12-20T16:57:07;1.80;;;1.70;;
15573;SDS011;7888;46.748;8.102;2023-12-20T16:59:33;2.20;;;1.50;;
15573;SDS011;7888;46.748;8.102;2023-12-20T17:01:59;1.40;;;1.30;;
15573;SDS011;7888;46.748;8.102;2023-12-20T17:04:27;1.20;;;1.10;;
15573;SDS011;7888;46.748;8.102;2023-12-20T17:06:53;1.40;;;1.30;;
15573;SDS011;7888;46.748;8.102;2023-12-20T17:09:18;1.33;;;1.23;;
15573;SDS011;7888;46.748;8.102;2023-12-20T17:11:44;1.43;;;1.30;;
15573;SDS011;7888;46.748;8.102;2023-12-20T17:14:10;0.90;;;0.90;;
15573;SDS011;7888;46.748;8.102;2023-12-20T17:16:37;1.40;;;1.30;;
15573;SDS011;7888;46.748;8.102;2023-12-20T17:19:03;1.53;;;1.23;;
15573;SDS011;7888;46.748;8.102;2023-12-20T17:21:30;2.17;;;1.40;;
15573;SDS011;7888;46.748;8.102;2023-12-20T17:23:56;1.87;;;1.43;;
15573;SDS011;7888;46.748;8.102;2023-12-20T17:26:22;1.63;;;1.23;;
15573;SDS011;7888;46.748;8.102;2023-12-20T17:28:48;1.53;;;1.27;;
15573;SDS011;7888;46.748;8.102;2023-12-20T17:31:13;2.27;;;1.50;;
15573;SDS011;7888;46.748;8.102;2023-12-20T17:33:39;1.40;;;1.30;;
15573;SDS011;7888;46.748;8.102;2023-12-20T17:36:05;1.30;;;1.20;;
15573;SDS011;7888;46.748;8.102;2023-12-20T17:38:32;1.10;;;1.00;;
15573;SDS011;7888;46.748;8.102;2023-12-20T17:41:01;1.50;;;1.30;;
15573;SDS011;7888;46.748;8.102;2023-12-20T17:43:27;1.27;;;1.17;;
15573;SDS011;7888;46.748;8.102;2023-12-20T17:45:54;1.80;;;1.47;;
15573;SDS011;7888;46.748;8.102;2023-12-20T17:48:20;1.27;;;1.17;;
15573;SDS011;7888;46.748;8.102;2023-12-20T17:50:46;1.60;;;1.20;;
15573;SDS011;7888;46.748;8.102;2023-12-20T17:53:13;1.67;;;1.20;;
15573;SDS011;7888;46.748;8.102;2023-12-20T17:55:39;1.30;;;1.20;;
15573;SDS011;7888;46.748;8.102;2023-12-20T17:58:05;1.40;;;1.20;;
15573;SDS011;7888;46.748;8.102;2023-12-20T18:00:34;2.37;;;1.37;;
15573;SDS011;7888;46.748;8.102;2023-12-20T18:03:01;2.70;;;1.30;;
15573;SDS011;7888;46.748;8.102;2023-12-20T18:05:27;1.50;;;1.40;;
15573;SDS011;7888;46.748;8.102;2023-12-20T18:07:52;1.50;;;1.37;;
15573;SDS011;7888;46.748;8.102;2023-12-20T18:10:18;1.53;;;1.30;;
15573;SDS011;7888;46.748;8.102;2023-12-20T18:12:45;2.03;;;1.20;;
15573;SDS011;7888;46.748;8.102;2023-12-20T18:15:12;1.40;;;1.30;;
15573;SDS011;7888;46.748;8.102;2023-12-20T18:17:39;1.60;;;1.10;;
15573;SDS011;7888;46.748;8.102;2023-12-20T18:20:06;1.67;;;1.13;;
15573;SDS011;7888;46.748;8.102;2023-12-20T18:22:32;1.40;;;1.13;;
15573;SDS011;7888;46.748;8.102;2023-12-20T18:24:58;1.07;;;0.97;;
15573;SDS011;7888;46.748;8.102;2023-12-20T18:27:24;1.20;;;1.10;;
15573;SDS011;7888;46.748;8.102;2023-12-20T18:29:51;1.60;;;1.20;;
15573;SDS011;7888;46.748;8.102;2023-12-20T18:32:17;2.53;;;1.60;;
15573;SDS011;7888;46.748;8.102;2023-12-20T18:34:43;1.47;;;1.20;;
15573;SDS011;7888;46.748;8.102;2023-12-20T18:37:08;1.53;;;1.37;;
15573;SDS011;7888;46.748;8.102;2023-12-20T18:39:39;1.87;;;1.10;;
15573;SDS011;7888;46.748;8.102;2023-12-20T18:42:05;1.73;;;1.13;;
15573;SDS011;7888;46.748;8.102;2023-12-20T18:44:35;1.50;;;1.17;;
15573;SDS011;7888;46.748;8.102;2023-12-20T18:47:01;1.10;;;1.00;;
15573;SDS011;7888;46.748;8.102;2023-12-20T18:49:27;1.30;;;1.20;;
15573;SDS011;7888;46.748;8.102;2023-12-20T18:51:53;1.20;;;1.10;;
15573;SDS011;7888;46.748;8.102;2023-12-20T18:54:19;1.13;;;0.90;;
15573;SDS011;7888;46.748;8.102;2023-12-20T18:56:46;1.37;;;1.20;;
15573;SDS011;7888;46.748;8.102;2023-12-20T18:59:13;1.10;;;1.00;;
15573;SDS011;7888;46.748;8.102;2023-12-20T19:01:42;1.33;;;1.03;;
15573;SDS011;7888;46.748;8.102;2023-12-20T19:04:08;1.10;;;1.00;;
15573;SDS011;7888;46.748;8.102;2023-12-20T19:06:34;1.27;;;1.03;;
15573;SDS011;7888;46.748;8.102;2023-12-20T19:08:59;1.23;;;1.00;;
15573;SDS011;7888;46.748;8.102;2023-12-20T19:11:25;2.70;;;1.37;;
15573;SDS011;7888;46.748;8.102;2023-12-20T19:13:51;2.40;;;1.30;;
15573;SDS011;7888;46.748;8.102;2023-12-20T19:16:16;1.90;;;1.30;;
15573;SDS011;7888;46.748;8.102;2023-12-20T19:18:42;2.27;;;1.67;;
15573;SDS011;7888;46.748;8.102;2023-12-20T19:21:08;2.23;;;1.67;;
15573;SDS011;7888;46.748;8.102;2023-12-20T19:23:34;1.73;;;1.50;;
15573;SDS011;7888;46.748;8.102;2023-12-20T19:26:00;1.47;;;1.27;;
15573;SDS011;7888;46.748;8.102;2023-12-20T19:28:27;1.40;;;1.30;;
15573;SDS011;7888;46.748;8.102;2023-12-20T19:30:53;1.93;;;1.67;;
15573;SDS011;7888;46.748;8.102;2023-12-20T19:33:19;2.60;;;1.63;;
15573;SDS011;7888;46.748;8.102;2023-12-20T19:35:47;2.27;;;1.97;;
15573;SDS011;7888;46.748;8.102;2023-12-20T19:38:13;1.97;;;1.77;;
15573;SDS011;7888;46.748;8.102;2023-12-20T19:40:40;2.10;;;1.70;;
15573;SDS011;7888;46.748;8.102;2023-12-20T19:43:06;1.50;;;1.30;;
15573;SDS011;7888;46.748;8.102;2023-12-20T19:45:33;3.50;;;1.70;;
15573;SDS011;7888;46.748;8.102;2023-12-20T19:48:00;1.37;;;1.27;;
15573;SDS011;7888;46.748;8.102;2023-12-20T19:50:26;1.67;;;1.03;;
15573;SDS011;7888;46.748;8.102;2023-12-20T19:52:51;1.30;;;1.20;;
15573;SDS011;7888;46.748;8.102;2023-12-20T19:55:17;1.60;;;1.30;;
15573;SDS011;7888;46.748;8.102;2023-12-20T19:57:43;1.90;;;1.50;;
15573;SDS011;7888;46.748;8.102;2023-12-20T20:00:09;9.27;;;7.97;;
15573;SDS011;7888;46.748;8.102;2023-12-20T20:02:35;4.27;;;3.63;;
15573;SDS011;7888;46.748;8.102;2023-12-20T20:05:02;7.60;;;6.77;;
15573;SDS011;7888;46.748;8.102;2023-12-20T20:07:31;13.80;;;11.40;;
15573;SDS011;7888;46.748;8.102;2023-12-20T20:09:58;17.13;;;15.07;;
15573;SDS011;7888;46.748;8.102;2023-12-20T20:12:24;14.40;;;11.80;;
15573;SDS011;7888;46.748;8.102;2023-12-20T20:14:50;36.97;;;32.37;;
15573;SDS011;7888;46.748;8.102;2023-12-20T20:17:16;39.33;;;32.80;;
15573;SDS011;7888;46.748;8.102;2023-12-20T20:19:41;49.40;;;40.20;;
15573;SDS011;7888;46.748;8.102;2023-12-20T20:22:07;31.50;;;26.17;;
15573;SDS011;7888;46.748;8.102;2023-12-20T20:24:33;36.63;;;29.30;;
15573;SDS011;7888;46.748;8.102;2023-12-20T20:26:59;34.43;;;28.47;;
15573;SDS011;7888;46.748;8.102;2023-12-20T20:29:25;49.37;;;40.37;;
15573;SDS011;7888;46.748;8.102;2023-12-20T20:31:50;60.50;;;50.20;;
15573;SDS011;7888;46.748;8.102;2023-12-20T20:34:16;26.20;;;21.40;;
15573;SDS011;7888;46.748;8.102;2023-12-20T20:36:44;53.60;;;44.17;;
15573;SDS011;7888;46.748;8.102;2023-12-20T20:39:09;86.73;;;73.43;;
15573;SDS011;7888;46.748;8.102;2023-12-20T20:41:37;110.33;;;90.83;;
15573;SDS011;7888;46.748;8.102;2023-12-20T20:44:03;66.13;;;54.83;;
15573;SDS011;7888;46.748;8.102;2023-12-20T20:46:29;66.93;;;57.50;;
15573;SDS011;7888;46.748;8.102;2023-12-20T20:48:55;45.43;;;39.00;;
15573;SDS011;7888;46.748;8.102;2023-12-20T20:51:21;37.00;;;29.83;;
15573;SDS011;7888;46.748;8.102;2023-12-20T20:53:46;20.67;;;18.00;;
15573;SDS011;7888;46.748;8.102;2023-12-20T20:56:12;12.00;;;10.10;;
15573;SDS011;7888;46.748;8.102;2023-12-20T20:58:39;6.70;;;6.00;;
15573;SDS011;7888;46.748;8.102;2023-12-20T21:01:05;5.90;;;4.60;;
15573;SDS011;7888;46.748;8.102;2023-12-20T21:03:31;5.50;;;4.00;;
15573;SDS011;7888;46.748;8.102;2023-12-20T21:05:56;3.93;;;3.47;;
15573;SDS011;7888;46.748;8.102;2023-12-20T21:08:22;3.87;;;3.13;;
15573;SDS011;7888;46.748;8.102;2023-12-20T21:10:48;3.43;;;3.13;;
15573;SDS011;7888;46.748;8.102;2023-12-20T21:13:14;3.20;;;2.90;;
15573;SDS011;7888;46.748;8.102;2023-12-20T21:15:41;3.17;;;2.50;;
15573;SDS011;7888;46.748;8.102;2023-12-20T21:18:06;2.20;;;2.00;;
15573;SDS011;7888;46.748;8.102;2023-12-20T21:20:32;2.70;;;2.33;;
15573;SDS011;7888;46.748;8.102;2023-12-20T21:22:58;4.27;;;3.10;;
15573;SDS011;7888;46.748;8.102;2023-12-20T21:25:24;4.80;;;3.20;;
15573;SDS011;7888;46.748;8.102;2023-12-20T21:27:50;5.53;;;3.50;;
15573;SDS011;7888;46.748;8.102;2023-12-20T21:30:17;4.87;;;3.80;;
15573;SDS011;7888;46.748;8.102;2023-12-20T21:32:42;5.87;;;4.07;;
15573;SDS011;7888;46.748;8.102;2023-12-20T21:35:10;5.23;;;3.93;;
15573;SDS011;7888;46.748;8.102;2023-12-20T21:37:37;2.80;;;2.43;;
15573;SDS011;7888;46.748;8.102;2023-12-20T21:40:03;3.03;;;1.80;;
15573;SDS011;7888;46.748;8.102;2023-12-20T21:42:30;2.47;;;2.07;;
15573;SDS011;7888;46.748;8.102;2023-12-20T21:44:56;3.57;;;2.23;;
15573;SDS011;7888;46.748;8.102;2023-12-20T21:47:22;4.17;;;3.30;;
15573;SDS011;7888;46.748;8.102;2023-12-20T21:49:47;3.77;;;3.20;;
15573;SDS011;7888;46.748;8.102;2023-12-20T21:52:13;2.93;;;2.70;;
15573;SDS011;7888;46.748;8.102;2023-12-20T21:54:39;2.43;;;2.23;;
15573;SDS011;7888;46.748;8.102;2023-12-20T21:57:05;3.73;;;2.87;;
15573;SDS011;7888;46.748;8.102;2023-12-20T21:59:31;3.47;;;2.37;;
15573;SDS011;7888;46.748;8.102;2023-12-20T22:01:57;3.20;;;2.40;;
15573;SDS011;7888;46.748;8.102;2023-12-20T22:04:22;3.53;;;2.37;;
15573;SDS011;7888;46.748;8.102;2023-12-20T22:06:48;2.40;;;2.20;;
15573;SDS011;7888;46.748;8.102;2023-12-20T22:09:14;1.50;;;1.40;;
15573;SDS011;7888;46.748;8.102;2023-12-20T22:11:39;1.50;;;1.33;;
15573;SDS011;7888;46.748;8.102;2023-12-20T22:14:05;2.90;;;1.47;;
15573;SDS011;7888;46.748;8.102;2023-12-20T22:16:32;2.00;;;1.70;;
15573;SDS011;7888;46.748;8.102;2023-12-20T22:18:59;2.87;;;1.80;;
15573;SDS011;7888;46.748;8.102;2023-12-20T22:21:25;3.30;;;1.83;;
15573;SDS011;7888;46.748;8.102;2023-12-20T22:23:51;1.90;;;1.70;;
15573;SDS011;7888;46.748;8.102;2023-12-20T22:26:17;1.60;;;1.50;;
15573;SDS011;7888;46.748;8.102;2023-12-20T22:28:44;2.67;;;1.73;;
15573;SDS011;7888;46.748;8.102;2023-12-20T22:31:10;2.23;;;1.83;;
15573;SDS011;7888;46.748;8.102;2023-12-20T22:33:36;2.70;;;2.23;;
15573;SDS011;7888;46.748;8.102;2023-12-20T22:36:01;2.27;;;1.80;;
15573;SDS011;7888;46.748;8.102;2023-12-20T22:38:27;4.50;;;2.30;;
15573;SDS011;7888;46.748;8.102;2023-12-20T22:40:55;3.03;;;2.47;;
15573;SDS011;7888;46.748;8.102;2023-12-20T22:43:21;5.13;;;3.17;;
15573;SDS011;7888;46.748;8.102;2023-12-20T22:45:47;3.33;;;2.30;;
15573;SDS011;7888;46.748;8.102;2023-12-20T22:48:13;2.93;;;1.90;;
15573;SDS011;7888;46.748;8.102;2023-12-20T22:50:39;4.30;;;1.60;;
15573;SDS011;7888;46.748;8.102;2023-12-20T22:53:04;2.20;;;1.60;;
15573;SDS011;7888;46.748;8.102;2023-12-20T22:55:30;2.43;;;1.60;;
15573;SDS011;7888;46.748;8.102;2023-12-20T22:57:56;1.60;;;1.50;;
15573;SDS011;7888;46.748;8.102;2023-12-20T23:00:22;2.77;;;2.10;;
15573;SDS011;7888;46.748;8.102;2023-12-20T23:02:51;1.87;;;1.50;;
15573;SDS011;7888;46.748;8.102;2023-12-20T23:05:18;1.73;;;1.60;;
15573;SDS011;7888;46.748;8.102;2023-12-20T23:07:45;2.53;;;1.77;;
15573;SDS011;7888;46.748;8.102;2023-12-20T23:10:12;2.40;;;1.67;;
15573;SDS011;7888;46.748;8.102;2023-12-20T23:12:38;1.67;;;1.57;;
15573;SDS011;7888;46.748;8.102;2023-12-20T23:15:04;2.10;;;1.67;;
15573;SDS011;7888;46.748;8.102;2023-12-20T23:17:31;2.37;;;1.90;;
15573;SDS011;7888;46.748;8.102;2023-12-20T23:19:56;1.83;;;1.73;;
15573;SDS011;7888;46.748;8.102;2023-12-20T23:22:22;2.60;;;1.80;;
15573;SDS011;7888;46.748;8.102;2023-12-20T23:24:48;2.67;;;1.90;;
15573;SDS011;7888;46.748;8.102;2023-12-20T23:27:14;1.83;;;1.70;;
15573;SDS011;7888;46.748;8.102;2023-12-20T23:29:40;2.53;;;1.87;;
15573;SDS011;7888;46.748;8.102;2023-12-20T23:32:05;1.90;;;1.70;;
15573;SDS011;7888;46.748;8.102;2023-12-20T23:34:31;2.33;;;1.80;;
15573;SDS011;7888;46.748;8.102;2023-12-20T23:36:57;3.13;;;2.43;;
15573;SDS011;7888;46.748;8.102;2023-12-20T23:39:23;3.50;;;2.77;;
15573;SDS011;7888;46.748;8.102;2023-12-20T23:41:49;5.47;;;3.53;;
15573;SDS011;7888;46.748;8.102;2023-12-20T23:44:15;7.13;;;4.73;;
15573;SDS011;7888;46.748;8.102;2023-12-20T23:46:41;5.23;;;3.70;;
15573;SDS011;7888;46.748;8.102;2023-12-20T23:49:06;5.03;;;3.50;;
15573;SDS011;7888;46.748;8.102;2023-12-20T23:51:32;4.17;;;2.67;;
15573;SDS011;7888;46.748;8.102;2023-12-20T23:53:59;6.03;;;2.70;;
15573;SDS011;7888;46.748;8.102;2023-12-20T23:56:24;2.87;;;2.23;;
15573;SDS011;7888;46.748;8.102;2023-12-20T23:58:50;2.67;;;2.37;;
